Terminal Aerodrome Forecast
Issued by NWS

Home | Current Version | Previous Version | Graphics & Text | Print | Product List | Glossary On
Versions: 1 2 3 4 5 6 7 8 9 10 11 12 13
000
FTUS43 KICT 191700
TAFHUT
TAF
KHUT 191739Z 1918/2018 19012G20KT P6SM SCT040
     FM200100 17010KT P6SM SCT250
     FM200700 17010KT P6SM BKN070
     FM201500 21007KT P6SM BKN070=

USA.gov is the U.S. government's official web portal to all federal, state and local government web resources and services.